Time;durP1;ratioP1;P1;durP2;ratioP2;P2;SDS_P1;SDS_P2;PMS_P1;PMS_P2;Temp;Humidity;BMP_temperature;BMP_pressure;BME280_temperature;BME280_humidity;BME280_pressure;Samples;Min_cycle;Max_cycle;Signal;HPM_P1;HPM_P2
2022/08/30 00:02:27;;;;;;;9.30;4.05;;;;;;;;;;5029967;28;20713;-65
2022/08/30 00:04:53;;;;;;;8.50;4.25;;;;;;;;;;5029834;28;20220;-65
2022/08/30 00:07:18;;;;;;;8.73;4.43;;;;;;;;;;5029866;28;20212;-65
2022/08/30 00:09:43;;;;;;;8.88;4.30;;;;;;;;;;5031624;28;20226;-64
2022/08/30 00:12:09;;;;;;;7.30;4.07;;;;;;;;;;5029646;28;20204;-65
2022/08/30 00:14:34;;;;;;;7.20;3.80;;;;;;;;;;5029423;28;20716;-65
2022/08/30 00:16:59;;;;;;;8.15;4.50;;;;;;;;;;5029950;28;20659;-65
2022/08/30 00:19:25;;;;;;;7.65;4.40;;;;;;;;;;5029687;28;20234;-65
2022/08/30 00:21:50;;;;;;;8.95;4.03;;;;;;;;;;5029310;28;20215;-65
2022/08/30 00:24:15;;;;;;;9.65;4.72;;;;;;;;;;5029442;28;20616;-65
2022/08/30 00:26:40;;;;;;;8.98;4.55;;;;;;;;;;5029908;28;20299;-65
2022/08/30 00:29:06;;;;;;;7.35;4.72;;;;;;;;;;5028860;28;20208;-64
2022/08/30 00:31:31;;;;;;;9.13;4.95;;;;;;;;;;5029886;28;20208;-65
2022/08/30 00:33:56;;;;;;;8.02;5.63;;;;;;;;;;5029883;28;20208;-65
2022/08/30 00:36:22;;;;;;;9.98;5.60;;;;;;;;;;5028543;28;20298;-65
2022/08/30 00:38:47;;;;;;;9.90;4.90;;;;;;;;;;5029715;28;20575;-65
2022/08/30 00:41:12;;;;;;;8.95;4.57;;;;;;;;;;5028662;28;20223;-65
2022/08/30 00:43:38;;;;;;;9.82;5.40;;;;;;;;;;5015083;28;20240;-64
2022/08/30 00:46:06;;;;;;;8.32;5.07;;;;;;;;;;5010732;28;20231;-64
2022/08/30 00:48:34;;;;;;;8.35;5.97;;;;;;;;;;5005605;28;20696;-63
2022/08/30 00:51:00;;;;;;;13.32;6.85;;;;;;;;;;5018086;28;20223;-64
2022/08/30 00:53:27;;;;;;;12.43;5.72;;;;;;;;;;5052952;28;20215;-64
2022/08/30 00:55:53;;;;;;;9.05;5.25;;;;;;;;;;5007762;28;20212;-64
2022/08/30 00:58:20;;;;;;;9.10;5.80;;;;;;;;;;5028681;28;20201;-64
2022/08/30 01:00:46;;;;;;;10.02;5.88;;;;;;;;;;4988872;28;20329;-64
2022/08/30 01:03:12;;;;;;;7.28;5.50;;;;;;;;;;4990921;28;20524;-64
2022/08/30 01:05:37;;;;;;;8.70;6.05;;;;;;;;;;5044731;28;20807;-63
2022/08/30 01:08:03;;;;;;;8.45;5.35;;;;;;;;;;4996443;28;20647;-65
2022/08/30 01:10:28;;;;;;;8.80;5.97;;;;;;;;;;5013515;28;20688;-64
2022/08/30 01:12:53;;;;;;;8.85;5.93;;;;;;;;;;5014226;28;20219;-64
2022/08/30 01:15:19;;;;;;;9.70;6.00;;;;;;;;;;5014326;28;20220;-64
2022/08/30 01:17:44;;;;;;;10.93;6.55;;;;;;;;;;5007143;28;20231;-63
2022/08/30 01:20:10;;;;;;;10.20;6.35;;;;;;;;;;4988628;28;20209;-64
2022/08/30 01:22:42;;;;;;;11.95;6.75;;;;;;;;;;5038560;28;20554;-63
2022/08/30 01:25:07;;;;;;;7.65;6.05;;;;;;;;;;4990694;28;20229;-64
2022/08/30 01:27:33;;;;;;;10.68;6.38;;;;;;;;;;5026074;28;20212;-64
2022/08/30 01:29:59;;;;;;;7.80;6.50;;;;;;;;;;5029169;28;20223;-64
2022/08/30 01:32:25;;;;;;;7.90;6.32;;;;;;;;;;5011148;28;20223;-64
2022/08/30 01:34:50;;;;;;;7.88;5.95;;;;;;;;;;5014010;28;20220;-64
2022/08/30 01:37:18;;;;;;;8.82;7.03;;;;;;;;;;5006360;28;20418;-64
2022/08/30 01:39:44;;;;;;;8.88;6.53;;;;;;;;;;5044271;28;20224;-63
2022/08/30 01:42:09;;;;;;;12.52;7.22;;;;;;;;;;5007800;28;20208;-64
2022/08/30 01:44:34;;;;;;;10.15;7.30;;;;;;;;;;5006373;28;20231;-64
2022/08/30 01:47:00;;;;;;;8.48;6.78;;;;;;;;;;5007978;28;20215;-63
2022/08/30 01:49:25;;;;;;;10.25;7.20;;;;;;;;;;5012937;28;20690;-64
2022/08/30 01:51:50;;;;;;;8.70;6.72;;;;;;;;;;5004780;28;20220;-63
2022/08/30 01:54:16;;;;;;;10.48;7.80;;;;;;;;;;4993582;28;20665;-63
2022/08/30 01:56:41;;;;;;;9.80;7.28;;;;;;;;;;4993697;28;20575;-63
2022/08/30 01:59:06;;;;;;;9.93;7.72;;;;;;;;;;4992845;28;20737;-64
2022/08/30 02:01:32;;;;;;;10.48;7.82;;;;;;;;;;4994102;28;20529;-63
2022/08/30 02:03:57;;;;;;;10.38;8.65;;;;;;;;;;5040658;28;20215;-63
2022/08/30 02:06:23;;;;;;;12.15;8.43;;;;;;;;;;5006002;28;20212;-63
2022/08/30 02:08:48;;;;;;;11.30;8.10;;;;;;;;;;4993208;28;20610;-64
2022/08/30 02:11:13;;;;;;;13.00;9.05;;;;;;;;;;4990472;28;20305;-63
2022/08/30 02:13:39;;;;;;;9.38;7.30;;;;;;;;;;5024193;28;20257;-63
2022/08/30 02:16:05;;;;;;;10.93;7.72;;;;;;;;;;5024809;28;20251;-64
2022/08/30 02:18:31;;;;;;;10.48;8.00;;;;;;;;;;5025205;28;20247;-63
2022/08/30 02:20:56;;;;;;;11.43;8.18;;;;;;;;;;4992595;28;20216;-63
2022/08/30 02:23:21;;;;;;;9.95;7.93;;;;;;;;;;4992661;28;20223;-64
2022/08/30 02:25:47;;;;;;;11.10;8.05;;;;;;;;;;5022438;28;20224;-63
2022/08/30 02:28:14;;;;;;;12.30;8.68;;;;;;;;;;4986719;28;20313;-64
2022/08/30 02:30:39;;;;;;;12.00;8.30;;;;;;;;;;4987151;28;20305;-63
2022/08/30 02:33:05;;;;;;;12.77;8.65;;;;;;;;;;5005202;28;20231;-63
2022/08/30 02:35:30;;;;;;;10.13;8.07;;;;;;;;;;5011677;28;20208;-63
2022/08/30 02:37:55;;;;;;;11.60;8.65;;;;;;;;;;5007684;28;20219;-63
2022/08/30 02:40:21;;;;;;;14.30;9.05;;;;;;;;;;4992639;28;20209;-63
2022/08/30 02:42:47;;;;;;;11.90;9.02;;;;;;;;;;4993147;28;20311;-63
2022/08/30 02:45:12;;;;;;;9.80;8.80;;;;;;;;;;4993058;28;21196;-63
2022/08/30 02:47:37;;;;;;;12.63;8.82;;;;;;;;;;4992656;28;20533;-63
2022/08/30 02:50:03;;;;;;;10.20;9.10;;;;;;;;;;4986725;28;20213;-63
2022/08/30 02:52:28;;;;;;;11.05;8.82;;;;;;;;;;5018670;28;20445;-63
2022/08/30 02:54:54;;;;;;;10.48;8.43;;;;;;;;;;4985541;28;20250;-63
2022/08/30 02:57:19;;;;;;;9.43;7.93;;;;;;;;;;4998241;28;20521;-63
2022/08/30 02:59:46;;;;;;;11.30;8.70;;;;;;;;;;5001500;28;20604;-63
2022/08/30 03:02:11;;;;;;;9.63;8.63;;;;;;;;;;5017871;28;20661;-63
2022/08/30 03:04:38;;;;;;;11.45;9.70;;;;;;;;;;5019236;28;20311;-63
2022/08/30 03:07:03;;;;;;;11.15;8.77;;;;;;;;;;5019053;28;20212;-63
2022/08/30 03:09:29;;;;;;;10.25;8.52;;;;;;;;;;5000596;28;20663;-63
2022/08/30 03:11:54;;;;;;;11.50;9.98;;;;;;;;;;4996734;28;20215;-63
2022/08/30 03:14:19;;;;;;;11.70;10.02;;;;;;;;;;4984321;28;20232;-63
2022/08/30 03:16:45;;;;;;;10.38;9.25;;;;;;;;;;4999407;28;20211;-63
2022/08/30 03:19:10;;;;;;;14.20;8.65;;;;;;;;;;4989462;28;20379;-63
2022/08/30 03:21:35;;;;;;;11.15;9.70;;;;;;;;;;5023715;28;20221;-63
2022/08/30 03:24:01;;;;;;;12.07;10.88;;;;;;;;;;4992105;28;20248;-64
2022/08/30 03:26:26;;;;;;;13.57;11.10;;;;;;;;;;4992698;28;20714;-63
2022/08/30 03:28:52;;;;;;;12.57;10.07;;;;;;;;;;4993086;28;20343;-63
2022/08/30 03:31:17;;;;;;;13.65;9.88;;;;;;;;;;4991946;28;20212;-63
2022/08/30 03:33:42;;;;;;;13.52;10.60;;;;;;;;;;5022463;28;20631;-63
2022/08/30 03:36:08;;;;;;;11.68;10.40;;;;;;;;;;4986432;28;20252;-64
2022/08/30 03:38:33;;;;;;;13.63;9.85;;;;;;;;;;4985738;28;20853;-63
2022/08/30 03:40:58;;;;;;;13.05;10.23;;;;;;;;;;4987817;28;20256;-63
2022/08/30 03:43:24;;;;;;;12.73;10.18;;;;;;;;;;4991602;28;20220;-63
2022/08/30 03:45:49;;;;;;;13.63;9.98;;;;;;;;;;4992167;28;20318;-63
2022/08/30 03:48:14;;;;;;;12.65;10.05;;;;;;;;;;4992124;28;20215;-63
2022/08/30 03:50:40;;;;;;;10.55;9.45;;;;;;;;;;5043031;28;20216;-63
2022/08/30 03:53:05;;;;;;;12.10;9.38;;;;;;;;;;5008473;28;20238;-63
2022/08/30 03:55:30;;;;;;;14.18;10.65;;;;;;;;;;5011504;28;20238;-63
2022/08/30 03:57:56;;;;;;;10.98;9.75;;;;;;;;;;4998739;28;20228;-63
2022/08/30 04:00:21;;;;;;;10.00;8.85;;;;;;;;;;5015790;28;20445;-63
2022/08/30 04:02:46;;;;;;;11.68;9.38;;;;;;;;;;5004985;28;20222;-63
2022/08/30 04:05:12;;;;;;;12.77;9.98;;;;;;;;;;5009988;28;20239;-63
2022/08/30 04:07:37;;;;;;;13.98;10.02;;;;;;;;;;5006664;28;20208;-63
2022/08/30 04:10:03;;;;;;;12.43;10.50;;;;;;;;;;5023018;28;20735;-63
2022/08/30 04:12:28;;;;;;;10.02;8.40;;;;;;;;;;5041583;28;20346;-63
2022/08/30 04:14:54;;;;;;;14.07;10.30;;;;;;;;;;5011475;28;20239;-64
2022/08/30 04:17:19;;;;;;;12.02;9.43;;;;;;;;;;5001021;28;20219;-64
2022/08/30 04:19:44;;;;;;;11.73;10.43;;;;;;;;;;4988257;28;20216;-64
2022/08/30 04:22:10;;;;;;;12.13;9.68;;;;;;;;;;4985671;28;20223;-64
2022/08/30 04:24:37;;;;;;;13.75;11.05;;;;;;;;;;5004270;28;20236;-64
2022/08/30 04:27:02;;;;;;;11.52;10.38;;;;;;;;;;5007429;28;20649;-64
2022/08/30 04:29:27;;;;;;;11.57;10.38;;;;;;;;;;5013966;28;20215;-64
2022/08/30 04:31:53;;;;;;;12.93;10.68;;;;;;;;;;5015529;28;20512;-64
2022/08/30 04:34:18;;;;;;;13.15;10.25;;;;;;;;;;5014606;28;20227;-64
2022/08/30 04:36:43;;;;;;;12.55;10.45;;;;;;;;;;5012202;28;20205;-64
2022/08/30 04:39:09;;;;;;;11.55;10.18;;;;;;;;;;5012618;28;20238;-64
2022/08/30 04:41:35;;;;;;;11.68;9.30;;;;;;;;;;5012094;28;20827;-64
2022/08/30 04:44:01;;;;;;;12.07;9.45;;;;;;;;;;5018954;28;20694;-64
2022/08/30 04:46:27;;;;;;;12.73;11.13;;;;;;;;;;5023957;28;20429;-64
2022/08/30 04:48:52;;;;;;;11.40;9.98;;;;;;;;;;5024703;28;20276;-63
2022/08/30 04:51:17;;;;;;;13.13;9.93;;;;;;;;;;5021154;28;20750;-64
2022/08/30 04:53:43;;;;;;;11.05;9.73;;;;;;;;;;5011378;28;20253;-64
2022/08/30 04:56:08;;;;;;;11.55;10.35;;;;;;;;;;5026943;28;20203;-64
2022/08/30 04:58:34;;;;;;;11.18;10.07;;;;;;;;;;5026334;28;20204;-63
2022/08/30 05:00:59;;;;;;;11.57;10.23;;;;;;;;;;5028085;28;20286;-63
2022/08/30 05:03:24;;;;;;;11.73;10.10;;;;;;;;;;5027386;28;20253;-64
2022/08/30 05:05:50;;;;;;;11.65;10.00;;;;;;;;;;5030302;28;20231;-64
2022/08/30 05:08:16;;;;;;;12.98;10.70;;;;;;;;;;5025988;28;20705;-63
2022/08/30 05:10:42;;;;;;;12.35;9.93;;;;;;;;;;5023928;28;20218;-64
2022/08/30 05:13:08;;;;;;;15.45;10.05;;;;;;;;;;5024257;28;20405;-65
2022/08/30 05:15:33;;;;;;;11.77;10.48;;;;;;;;;;5023130;28;20235;-64
2022/08/30 05:17:59;;;;;;;10.48;9.27;;;;;;;;;;5024875;28;20294;-64
2022/08/30 05:20:24;;;;;;;12.15;8.77;;;;;;;;;;5023946;28;20204;-64
2022/08/30 05:22:50;;;;;;;10.75;9.68;;;;;;;;;;5024465;28;20292;-64
2022/08/30 05:25:22;;;;;;;11.80;9.98;;;;;;;;;;5025510;28;20558;-64
2022/08/30 05:27:47;;;;;;;10.27;8.25;;;;;;;;;;5030186;28;20261;-64
2022/08/30 05:30:13;;;;;;;9.55;8.55;;;;;;;;;;5026813;28;20203;-64
2022/08/30 05:32:39;;;;;;;10.32;8.18;;;;;;;;;;5028793;28;20239;-64
2022/08/30 05:35:05;;;;;;;10.45;8.20;;;;;;;;;;5028536;28;20208;-65
2022/08/30 05:37:30;;;;;;;8.25;7.45;;;;;;;;;;5026088;28;20277;-65
2022/08/30 05:39:56;;;;;;;9.27;7.35;;;;;;;;;;5027865;28;20627;-65
2022/08/30 05:42:21;;;;;;;9.75;7.03;;;;;;;;;;5027721;28;20223;-66
2022/08/30 05:44:49;;;;;;;10.45;7.72;;;;;;;;;;5029923;28;20215;-63
2022/08/30 05:47:15;;;;;;;11.18;7.82;;;;;;;;;;5023217;28;20211;-64
2022/08/30 05:49:40;;;;;;;10.23;7.15;;;;;;;;;;5027571;28;20200;-64
2022/08/30 05:52:06;;;;;;;10.10;7.00;;;;;;;;;;5031644;28;20722;-64
2022/08/30 05:54:31;;;;;;;8.38;6.63;;;;;;;;;;5027616;28;20752;-66
2022/08/30 05:56:56;;;;;;;9.20;6.87;;;;;;;;;;5022540;28;20785;-62
2022/08/30 05:59:22;;;;;;;10.00;7.20;;;;;;;;;;5022413;28;20212;-65
2022/08/30 06:01:47;;;;;;;10.07;6.20;;;;;;;;;;5024961;28;20211;-65
2022/08/30 06:04:12;;;;;;;6.47;5.65;;;;;;;;;;5023831;28;20519;-65
2022/08/30 06:06:38;;;;;;;6.63;5.28;;;;;;;;;;5023430;28;20262;-65
2022/08/30 06:09:04;;;;;;;7.22;6.00;;;;;;;;;;5024408;28;20254;-65
2022/08/30 06:11:29;;;;;;;8.40;5.78;;;;;;;;;;5024621;28;21000;-65
2022/08/30 06:13:55;;;;;;;7.22;5.25;;;;;;;;;;5023856;28;20617;-65
2022/08/30 06:16:21;;;;;;;7.30;5.15;;;;;;;;;;5021752;28;20722;-65
2022/08/30 06:18:47;;;;;;;8.18;5.30;;;;;;;;;;5022080;28;20703;-65
2022/08/30 06:21:20;;;;;;;8.80;5.10;;;;;;;;;;5022017;28;20200;-65
2022/08/30 06:23:45;;;;;;;6.28;5.35;;;;;;;;;;5024203;28;20223;-65
2022/08/30 06:26:11;;;;;;;6.53;5.15;;;;;;;;;;5023270;28;20224;-65
2022/08/30 06:28:36;;;;;;;6.68;4.95;;;;;;;;;;5023124;28;20258;-65
2022/08/30 06:31:04;;;;;;;6.53;5.03;;;;;;;;;;5023031;28;20216;-66
2022/08/30 06:33:29;;;;;;;7.03;5.00;;;;;;;;;;5022674;28;20255;-65
2022/08/30 06:36:00;;;;;;;6.43;4.40;;;;;;;;;;5023591;28;20203;-65
2022/08/30 06:38:26;;;;;;;9.13;5.28;;;;;;;;;;5023693;28;20212;-65
2022/08/30 06:40:51;;;;;;;5.40;4.70;;;;;;;;;;5023755;28;20219;-65
2022/08/30 06:43:16;;;;;;;7.88;4.95;;;;;;;;;;5021701;28;20215;-65
2022/08/30 06:45:42;;;;;;;6.10;4.70;;;;;;;;;;5023082;28;20235;-65
2022/08/30 06:48:07;;;;;;;6.38;4.50;;;;;;;;;;5022464;28;20207;-65
2022/08/30 06:50:32;;;;;;;6.82;4.70;;;;;;;;;;5022852;28;20219;-64
2022/08/30 06:53:04;;;;;;;5.72;3.97;;;;;;;;;;5024085;28;20208;-65
2022/08/30 06:55:32;;;;;;;6.80;4.30;;;;;;;;;;5023922;28;20694;-73
2022/08/30 06:57:57;;;;;;;6.30;3.72;;;;;;;;;;5022835;28;20728;-65
2022/08/30 07:00:23;;;;;;;6.05;4.35;;;;;;;;;;5023455;28;20283;-65
2022/08/30 07:02:48;;;;;;;7.00;3.75;;;;;;;;;;5023119;28;21513;-65
2022/08/30 07:05:13;;;;;;;7.05;3.60;;;;;;;;;;5022594;28;20610;-64
2022/08/30 07:07:39;;;;;;;5.22;3.00;;;;;;;;;;5022132;28;20616;-64
2022/08/30 07:10:04;;;;;;;5.30;3.20;;;;;;;;;;5022684;28;20306;-64
2022/08/30 07:12:29;;;;;;;6.65;3.28;;;;;;;;;;5022976;28;20629;-63
2022/08/30 07:14:55;;;;;;;4.38;2.72;;;;;;;;;;5022723;28;20211;-63
2022/08/30 07:20:04;;;;;;;3.75;2.40;;;;;;;;;;5022797;28;20250;-64
2022/08/30 07:22:31;;;;;;;4.47;2.85;;;;;;;;;;5022195;28;20590;-64
2022/08/30 07:24:56;;;;;;;4.30;2.58;;;;;;;;;;5022708;28;20219;-63
2022/08/30 07:27:21;;;;;;;6.05;2.58;;;;;;;;;;5024557;28;20234;-63
2022/08/30 07:29:47;;;;;;;6.00;2.63;;;;;;;;;;5035461;28;20276;-64
2022/08/30 07:32:13;;;;;;;5.32;2.20;;;;;;;;;;5020055;28;20233;-63
2022/08/30 07:34:38;;;;;;;5.18;2.40;;;;;;;;;;5020220;28;20674;-64
2022/08/30 07:37:03;;;;;;;7.68;2.00;;;;;;;;;;5020484;28;20729;-64
2022/08/30 07:39:29;;;;;;;3.85;1.90;;;;;;;;;;5022303;28;20706;-64
2022/08/30 07:41:54;;;;;;;4.72;1.88;;;;;;;;;;5022388;28;20235;-64
2022/08/30 07:44:20;;;;;;;5.05;1.80;;;;;;;;;;5020101;28;20270;-64
2022/08/30 07:46:45;;;;;;;5.50;1.83;;;;;;;;;;5022651;28;20246;-64
2022/08/30 07:49:11;;;;;;;4.25;1.63;;;;;;;;;;5022573;28;20291;-64
2022/08/30 07:51:37;;;;;;;3.35;1.70;;;;;;;;;;4999195;28;20276;-64
2022/08/30 07:54:02;;;;;;;3.83;1.60;;;;;;;;;;5041776;28;20219;-64
2022/08/30 07:56:27;;;;;;;5.93;1.52;;;;;;;;;;5040057;28;20257;-63
2022/08/30 07:58:53;;;;;;;2.78;1.35;;;;;;;;;;5041550;28;20570;-64
2022/08/30 08:01:18;;;;;;;3.17;1.38;;;;;;;;;;5043551;28;20211;-64
2022/08/30 08:03:44;;;;;;;3.65;1.30;;;;;;;;;;5036305;28;20212;-63
2022/08/30 08:06:10;;;;;;;2.30;1.20;;;;;;;;;;5025061;28;20680;-65
2022/08/30 08:08:35;;;;;;;5.93;1.40;;;;;;;;;;5025563;28;20421;-63
2022/08/30 08:11:08;;;;;;;4.28;1.25;;;;;;;;;;5025640;28;20619;-64
2022/08/30 08:13:34;;;;;;;3.42;1.60;;;;;;;;;;5024993;28;20231;-64
2022/08/30 08:15:59;;;;;;;4.25;1.20;;;;;;;;;;5035035;28;20482;-63
2022/08/30 08:18:24;;;;;;;2.58;1.27;;;;;;;;;;5025622;28;20206;-63
2022/08/30 08:20:50;;;;;;;3.70;1.30;;;;;;;;;;5026193;28;20462;-63
2022/08/30 08:23:15;;;;;;;4.30;1.20;;;;;;;;;;5025209;28;20211;-63
2022/08/30 08:25:40;;;;;;;5.07;1.50;;;;;;;;;;5025144;28;20278;-63
2022/08/30 08:28:06;;;;;;;6.18;1.52;;;;;;;;;;5025282;28;20215;-63
2022/08/30 08:30:32;;;;;;;4.95;1.67;;;;;;;;;;5024398;28;20421;-63
2022/08/30 08:32:57;;;;;;;4.78;1.50;;;;;;;;;;5025263;28;20242;-63
2022/08/30 08:35:22;;;;;;;3.70;1.30;;;;;;;;;;5025010;28;20216;-63
2022/08/30 08:37:48;;;;;;;4.90;1.40;;;;;;;;;;5025567;28;20583;-63
2022/08/30 08:40:14;;;;;;;2.85;1.10;;;;;;;;;;5025406;28;20211;-63
2022/08/30 08:42:46;;;;;;;4.22;1.20;;;;;;;;;;5045808;28;20211;-64
2022/08/30 08:45:13;;;;;;;4.18;1.52;;;;;;;;;;5045945;28;20289;-63
2022/08/30 08:47:39;;;;;;;4.57;1.50;;;;;;;;;;5034382;28;20590;-63
2022/08/30 08:50:06;;;;;;;6.75;1.15;;;;;;;;;;5025355;28;20563;-64
2022/08/30 08:55:19;;;;;;;3.75;1.50;;;;;;;;;;5040664;28;20214;-63
2022/08/30 08:57:45;;;;;;;6.22;1.25;;;;;;;;;;5025468;28;20441;-63
2022/08/30 09:00:10;;;;;;;4.10;1.58;;;;;;;;;;5025683;28;20625;-64
2022/08/30 09:02:39;;;;;;;4.25;1.30;;;;;;;;;;5023213;28;20219;-63
2022/08/30 09:05:05;;;;;;;2.67;1.30;;;;;;;;;;5023874;28;20629;-63
2022/08/30 09:07:34;;;;;;;4.40;1.40;;;;;;;;;;5025223;28;20659;-64
2022/08/30 09:09:59;;;;;;;6.32;1.38;;;;;;;;;;5023155;28;20307;-63
2022/08/30 09:12:25;;;;;;;4.00;1.40;;;;;;;;;;5024349;28;20298;-63
2022/08/30 09:14:53;;;;;;;5.18;1.48;;;;;;;;;;5024475;28;20265;-63
2022/08/30 09:17:18;;;;;;;3.70;1.00;;;;;;;;;;5022984;28;20212;-64
2022/08/30 09:19:45;;;;;;;3.80;1.48;;;;;;;;;;5025346;28;20212;-63
2022/08/30 09:22:14;;;;;;;4.05;1.40;;;;;;;;;;5022236;28;20412;-64
2022/08/30 09:24:44;;;;;;;6.40;1.45;;;;;;;;;;5025393;28;20621;-63
2022/08/30 09:27:13;;;;;;;6.38;1.20;;;;;;;;;;5024007;28;20314;-64
2022/08/30 09:29:43;;;;;;;5.43;1.50;;;;;;;;;;5024414;28;20266;-63
2022/08/30 09:32:10;;;;;;;5.47;1.50;;;;;;;;;;5022493;28;20433;-63
2022/08/30 09:34:35;;;;;;;7.38;1.30;;;;;;;;;;5023221;28;20299;-63
2022/08/30 09:37:00;;;;;;;4.18;1.10;;;;;;;;;;5023787;28;20223;-65
2022/08/30 09:39:26;;;;;;;5.20;1.23;;;;;;;;;;5025039;28;20207;-63
2022/08/30 09:41:51;;;;;;;5.53;1.30;;;;;;;;;;5024494;28;20500;-63
2022/08/30 09:44:18;;;;;;;6.35;1.52;;;;;;;;;;5023555;28;20408;-63
2022/08/30 09:46:50;;;;;;;4.07;1.40;;;;;;;;;;5025273;28;20289;-63
2022/08/30 09:49:29;;;;;;;3.55;1.33;;;;;;;;;;5023799;28;20711;-63
2022/08/30 09:51:58;;;;;;;2.58;1.30;;;;;;;;;;5032948;28;20430;-63
2022/08/30 09:54:25;;;;;;;3.13;1.20;;;;;;;;;;5042094;28;20306;-63
2022/08/30 09:56:53;;;;;;;4.13;1.35;;;;;;;;;;5026367;28;20242;-63
2022/08/30 09:59:25;;;;;;;4.70;1.40;;;;;;;;;;5022600;28;20362;-63
2022/08/30 10:01:52;;;;;;;4.38;1.38;;;;;;;;;;5024366;28;20350;-63
2022/08/30 10:04:27;;;;;;;2.58;1.27;;;;;;;;;;5021272;28;20212;-63
2022/08/30 10:06:54;;;;;;;4.68;1.40;;;;;;;;;;5022445;28;20211;-63
2022/08/30 10:09:22;;;;;;;2.50;1.40;;;;;;;;;;5022207;28;20297;-63
2022/08/30 10:11:55;;;;;;;5.28;1.50;;;;;;;;;;5022841;28;20243;-63
2022/08/30 10:14:28;;;;;;;3.20;1.25;;;;;;;;;;5023444;28;20220;-63
2022/08/30 10:16:58;;;;;;;3.83;1.77;;;;;;;;;;5022352;28;20295;-63
2022/08/30 10:19:42;;;;;;;5.47;1.20;;;;;;;;;;5022871;28;20208;-63
2022/08/30 10:22:12;;;;;;;5.57;1.20;;;;;;;;;;5022089;28;20405;-63
2022/08/30 10:24:39;;;;;;;2.97;1.25;;;;;;;;;;5020926;28;20377;-63
2022/08/30 10:27:06;;;;;;;3.65;1.30;;;;;;;;;;5021163;28;20286;-63
2022/08/30 10:29:33;;;;;;;3.05;1.60;;;;;;;;;;5022240;28;20222;-63
2022/08/30 10:32:00;;;;;;;3.58;1.63;;;;;;;;;;5021854;28;20219;-63
2022/08/30 10:34:28;;;;;;;4.95;1.60;;;;;;;;;;5020447;28;20714;-63
2022/08/30 10:37:02;;;;;;;4.38;1.30;;;;;;;;;;5023329;28;20230;-63
2022/08/30 10:39:30;;;;;;;2.63;1.42;;;;;;;;;;5020824;28;20207;-64
2022/08/30 10:41:58;;;;;;;5.07;1.55;;;;;;;;;;5021983;28;20284;-65
2022/08/30 10:44:25;;;;;;;4.45;1.35;;;;;;;;;;5022528;28;20566;-65
2022/08/30 10:46:59;;;;;;;2.42;1.15;;;;;;;;;;5021462;28;20814;-65
2022/08/30 10:49:25;;;;;;;5.75;1.40;;;;;;;;;;5022648;28;20216;-65
2022/08/30 10:51:56;;;;;;;3.42;1.20;;;;;;;;;;5030474;28;20321;-65
2022/08/30 10:54:24;;;;;;;4.03;1.65;;;;;;;;;;5041564;28;20219;-64
2022/08/30 10:56:50;;;;;;;2.90;1.15;;;;;;;;;;5017317;28;20307;-64
2022/08/30 10:59:15;;;;;;;2.47;1.25;;;;;;;;;;5001871;28;20244;-65
2022/08/30 11:01:59;;;;;;;4.53;1.20;;;;;;;;;;5001243;28;20204;-64
2022/08/30 11:04:44;;;;;;;4.07;1.30;;;;;;;;;;5003330;28;20246;-64
2022/08/30 11:07:15;;;;;;;4.43;1.20;;;;;;;;;;5001010;28;20295;-65
2022/08/30 11:09:45;;;;;;;4.00;1.20;;;;;;;;;;5002948;28;20208;-64
2022/08/30 11:12:29;;;;;;;4.90;1.27;;;;;;;;;;5001642;28;20220;-65
2022/08/30 11:14:54;;;;;;;3.40;1.10;;;;;;;;;;5001112;28;20212;-65
2022/08/30 11:17:30;;;;;;;4.63;1.30;;;;;;;;;;5012558;28;20207;-65
2022/08/30 11:19:56;;;;;;;5.85;1.45;;;;;;;;;;5021211;28;20892;-64
2022/08/30 11:22:29;;;;;;;3.58;1.10;;;;;;;;;;5021539;28;20292;-65
2022/08/30 11:24:58;;;;;;;3.38;1.38;;;;;;;;;;5020117;28;20220;-65
2022/08/30 11:27:41;;;;;;;4.28;1.40;;;;;;;;;;5022480;28;20269;-65
2022/08/30 11:30:28;;;;;;;3.33;1.20;;;;;;;;;;5021546;28;20220;-64
2022/08/30 11:33:00;;;;;;;4.88;1.02;;;;;;;;;;5022171;28;20634;-64
2022/08/30 11:35:33;;;;;;;4.28;1.10;;;;;;;;;;5021469;28;20208;-65
2022/08/30 11:37:59;;;;;;;4.57;1.30;;;;;;;;;;5022065;28;20215;-64
2022/08/30 11:40:25;;;;;;;2.63;1.00;;;;;;;;;;5021498;28;20211;-64
2022/08/30 11:42:51;;;;;;;8.00;1.95;;;;;;;;;;5021993;28;20254;-65
2022/08/30 11:45:20;;;;;;;3.67;1.40;;;;;;;;;;5021821;28;20322;-66
2022/08/30 11:47:49;;;;;;;6.85;1.42;;;;;;;;;;5022418;28;20414;-66
2022/08/30 11:50:29;;;;;;;5.05;1.20;;;;;;;;;;5021255;28;20220;-66
2022/08/30 11:53:01;;;;;;;3.83;1.52;;;;;;;;;;5022151;28;20211;-66
2022/08/30 11:55:36;;;;;;;2.30;1.50;;;;;;;;;;5023387;28;20523;-67
2022/08/30 11:58:09;;;;;;;4.03;1.30;;;;;;;;;;5019670;28;20233;-71
2022/08/30 12:00:38;;;;;;;6.25;1.52;;;;;;;;;;5021232;28;20235;-67
2022/08/30 12:03:04;;;;;;;3.35;1.00;;;;;;;;;;5021814;28;20216;-66
2022/08/30 12:05:41;;;;;;;6.13;1.15;;;;;;;;;;5021515;28;20234;-67
2022/08/30 12:08:19;;;;;;;3.05;1.05;;;;;;;;;;5022435;28;20246;-67
2022/08/30 12:10:52;;;;;;;2.42;1.10;;;;;;;;;;5020860;28;20219;-68
2022/08/30 12:13:33;;;;;;;4.47;1.20;;;;;;;;;;5021465;28;20246;-68
2022/08/30 12:16:00;;;;;;;4.22;1.27;;;;;;;;;;5000944;28;20219;-67
2022/08/30 12:18:29;;;;;;;4.30;1.10;;;;;;;;;;5020950;28;20212;-68
2022/08/30 12:20:55;;;;;;;5.93;1.20;;;;;;;;;;5007226;28;20318;-68
2022/08/30 12:23:22;;;;;;;2.15;1.15;;;;;;;;;;5003985;28;20226;-67
2022/08/30 12:25:47;;;;;;;4.30;1.02;;;;;;;;;;5010828;28;20223;-68
2022/08/30 12:28:14;;;;;;;3.33;1.17;;;;;;;;;;5005719;28;20239;-67
2022/08/30 12:30:39;;;;;;;4.18;1.20;;;;;;;;;;5018863;28;20263;-68
2022/08/30 12:33:05;;;;;;;6.80;1.20;;;;;;;;;;5019936;28;20231;-68
2022/08/30 12:35:30;;;;;;;4.88;1.23;;;;;;;;;;5021109;28;20270;-68
2022/08/30 12:37:58;;;;;;;3.85;1.58;;;;;;;;;;5021767;28;20659;-67
2022/08/30 12:40:24;;;;;;;2.05;1.20;;;;;;;;;;4999150;28;20573;-67
2022/08/30 12:42:49;;;;;;;1.95;0.90;;;;;;;;;;5021646;28;20208;-67
2022/08/30 12:45:16;;;;;;;2.88;1.13;;;;;;;;;;5021421;28;20311;-67
2022/08/30 12:47:43;;;;;;;2.70;1.50;;;;;;;;;;5021609;28;20220;-68
2022/08/30 12:50:09;;;;;;;2.85;1.10;;;;;;;;;;5023875;28;20222;-67
2022/08/30 12:52:36;;;;;;;3.22;1.08;;;;;;;;;;5040118;28;20215;-67
2022/08/30 12:55:17;;;;;;;4.65;1.15;;;;;;;;;;5042276;28;20237;-67
2022/08/30 12:57:43;;;;;;;2.63;1.10;;;;;;;;;;4984314;28;20220;-66
2022/08/30 13:00:10;;;;;;;7.05;1.40;;;;;;;;;;5004508;28;20726;-66
2022/08/30 13:02:42;;;;;;;5.18;1.30;;;;;;;;;;4980800;28;20223;-66
2022/08/30 13:05:26;;;;;;;3.08;1.33;;;;;;;;;;5010670;28;20284;-66
2022/08/30 13:07:51;;;;;;;3.65;1.20;;;;;;;;;;5002218;28;20227;-66
2022/08/30 13:10:18;;;;;;;3.60;1.10;;;;;;;;;;5006539;28;20225;-66
2022/08/30 13:13:03;;;;;;;3.05;1.10;;;;;;;;;;5016100;28;20726;-68
2022/08/30 13:15:33;;;;;;;4.20;1.20;;;;;;;;;;4996774;28;20220;-67
2022/08/30 13:18:12;;;;;;;3.58;1.20;;;;;;;;;;4979185;28;20254;-67
2022/08/30 13:20:37;;;;;;;6.85;1.30;;;;;;;;;;5039187;28;20210;-66
2022/08/30 13:23:04;;;;;;;5.03;1.30;;;;;;;;;;5055336;28;20222;-67
2022/08/30 13:25:29;;;;;;;3.92;1.20;;;;;;;;;;5052415;28;20444;-67
2022/08/30 13:27:55;;;;;;;2.70;1.30;;;;;;;;;;5031154;28;20812;-68
2022/08/30 13:30:20;;;;;;;4.13;1.23;;;;;;;;;;5032891;28;20420;-67
2022/08/30 13:32:45;;;;;;;3.75;1.10;;;;;;;;;;5055549;28;20314;-67
2022/08/30 13:35:11;;;;;;;2.97;1.23;;;;;;;;;;5054516;28;20206;-67
2022/08/30 13:37:36;;;;;;;3.90;1.15;;;;;;;;;;5058055;28;20225;-67
2022/08/30 13:40:02;;;;;;;3.25;1.30;;;;;;;;;;5054955;28;20207;-67
2022/08/30 13:42:27;;;;;;;3.20;1.20;;;;;;;;;;5054257;28;20210;-67
2022/08/30 13:44:53;;;;;;;2.25;1.10;;;;;;;;;;5043152;28;20230;-67
2022/08/30 13:47:18;;;;;;;4.55;1.25;;;;;;;;;;5052958;28;21054;-67
2022/08/30 13:49:45;;;;;;;4.65;1.20;;;;;;;;;;5025973;28;20210;-67
2022/08/30 13:52:13;;;;;;;3.95;1.10;;;;;;;;;;4979900;28;20718;-68
2022/08/30 13:54:38;;;;;;;4.25;1.30;;;;;;;;;;5018909;28;20726;-67
2022/08/30 13:57:03;;;;;;;4.45;1.40;;;;;;;;;;4999154;28;20270;-67
2022/08/30 13:59:32;;;;;;;4.65;1.40;;;;;;;;;;4998732;28;21274;-67
2022/08/30 14:01:57;;;;;;;3.45;1.20;;;;;;;;;;5019612;28;20247;-67
2022/08/30 14:04:23;;;;;;;4.82;1.27;;;;;;;;;;5018432;28;20286;-67
2022/08/30 14:06:48;;;;;;;2.58;1.10;;;;;;;;;;5018728;28;20243;-67
2022/08/30 14:09:13;;;;;;;3.90;1.40;;;;;;;;;;5003445;28;20209;-67
2022/08/30 14:11:39;;;;;;;4.47;1.30;;;;;;;;;;4993133;28;20244;-66
2022/08/30 14:14:04;;;;;;;4.00;1.38;;;;;;;;;;4994107;28;20781;-65
2022/08/30 14:16:30;;;;;;;6.07;1.10;;;;;;;;;;4994820;28;20224;-65
2022/08/30 14:18:56;;;;;;;2.38;1.10;;;;;;;;;;4997921;28;20502;-65
2022/08/30 14:21:21;;;;;;;2.85;1.10;;;;;;;;;;5000385;28;20236;-65
2022/08/30 14:23:47;;;;;;;3.30;1.20;;;;;;;;;;4999474;28;20347;-65
2022/08/30 14:26:14;;;;;;;4.40;1.20;;;;;;;;;;4999092;28;20220;-65
2022/08/30 14:28:40;;;;;;;2.45;1.02;;;;;;;;;;5031981;28;20602;-65
2022/08/30 14:31:06;;;;;;;5.03;1.15;;;;;;;;;;4999210;28;20219;-65
2022/08/30 14:33:31;;;;;;;3.42;0.93;;;;;;;;;;4996255;28;20216;-65
2022/08/30 14:35:56;;;;;;;4.70;1.30;;;;;;;;;;4994030;28;20488;-65
2022/08/30 14:38:22;;;;;;;3.97;1.02;;;;;;;;;;4992877;28;20212;-65
2022/08/30 14:40:47;;;;;;;4.88;1.20;;;;;;;;;;4996598;28;20220;-63
2022/08/30 14:43:12;;;;;;;3.40;1.20;;;;;;;;;;4999505;28;20216;-65